createdAt,value
2018-10-17T00:01:09.314Z,10.32
2018-10-17T00:03:38.501Z,11.28
2018-10-17T00:06:07.697Z,13.05
2018-10-17T00:08:37.068Z,13.03
2018-10-17T00:11:06.291Z,11.65
2018-10-17T00:13:35.464Z,11.80
2018-10-17T00:16:04.765Z,12.43
2018-10-17T00:18:34.226Z,11.73
2018-10-17T00:21:03.541Z,14.28
2018-10-17T00:23:32.987Z,12.53
2018-10-17T00:26:02.486Z,12.45
2018-10-17T00:28:31.829Z,12.53
2018-10-17T00:31:02.017Z,12.03
2018-10-17T00:33:31.107Z,12.63
2018-10-17T00:36:00.320Z,14.60
2018-10-17T00:38:29.714Z,13.08
2018-10-17T00:40:58.922Z,13.90
2018-10-17T00:43:28.059Z,14.85
2018-10-17T00:45:57.208Z,13.00
2018-10-17T00:48:26.534Z,12.90
2018-10-17T00:50:55.732Z,13.83
2018-10-17T00:53:24.934Z,12.53
2018-10-17T00:55:54.110Z,13.58
2018-10-17T00:58:24.186Z,14.00
2018-10-17T01:00:53.368Z,13.18
2018-10-17T01:03:23.120Z,15.23
2018-10-17T01:05:52.336Z,13.00
2018-10-17T01:08:21.742Z,14.20
2018-10-17T01:10:51.872Z,13.50
2018-10-17T01:13:21.075Z,13.68
2018-10-17T01:15:50.248Z,13.60
2018-10-17T01:18:19.521Z,13.88
2018-10-17T01:20:48.675Z,15.70
2018-10-17T01:23:17.863Z,15.55
2018-10-17T01:25:47.630Z,16.27
2018-10-17T01:28:16.948Z,15.18
2018-10-17T01:30:46.142Z,15.53
2018-10-17T01:33:15.325Z,15.13
2018-10-17T01:35:44.522Z,12.85
2018-10-17T01:38:13.774Z,13.72
2018-10-17T01:40:42.947Z,13.45
2018-10-17T01:43:12.250Z,14.43
2018-10-17T01:45:41.325Z,14.63
2018-10-17T01:48:10.534Z,13.83
2018-10-17T01:50:39.720Z,14.93
2018-10-17T01:53:08.961Z,16.10
2018-10-17T01:55:38.079Z,14.45
2018-10-17T01:58:07.325Z,14.60
2018-10-17T02:00:36.533Z,14.55
2018-10-17T02:03:05.774Z,15.10
2018-10-17T02:05:35.010Z,15.15
2018-10-17T02:08:04.325Z,14.50
2018-10-17T02:10:33.514Z,13.95
2018-10-17T02:13:02.828Z,14.85
2018-10-17T02:15:31.996Z,15.83
2018-10-17T02:18:01.304Z,14.40
2018-10-17T02:20:30.519Z,14.98
2018-10-17T02:22:59.835Z,15.35
2018-10-17T02:25:29.503Z,16.15
2018-10-17T02:27:58.788Z,16.00
2018-10-17T02:30:29.067Z,15.35
2018-10-17T02:32:58.265Z,15.00
2018-10-17T02:35:28.055Z,14.20
2018-10-17T02:37:58.056Z,15.38
2018-10-17T02:40:28.373Z,15.85
2018-10-17T02:42:57.545Z,17.10
2018-10-17T02:45:27.617Z,15.23
2018-10-17T02:47:56.820Z,15.10
2018-10-17T02:50:27.341Z,16.52
2018-10-17T02:52:56.553Z,17.17
2018-10-17T02:55:26.225Z,16.95
2018-10-17T02:57:55.482Z,16.75
2018-10-17T03:00:24.707Z,17.32
2018-10-17T03:02:53.881Z,15.72
2018-10-17T03:05:23.138Z,16.23
2018-10-17T03:07:52.450Z,15.40
2018-10-17T03:10:21.626Z,14.95
2018-10-17T03:12:50.814Z,15.20
2018-10-17T03:15:20.006Z,13.62
2018-10-17T03:17:49.228Z,14.10
2018-10-17T03:20:18.510Z,15.05
2018-10-17T03:22:47.674Z,17.23
2018-10-17T03:25:16.993Z,15.50
2018-10-17T03:27:46.783Z,17.15
2018-10-17T03:30:15.939Z,18.20
2018-10-17T03:32:45.218Z,20.17
2018-10-17T03:35:14.422Z,17.90
2018-10-17T03:37:44.346Z,17.75
2018-10-17T03:40:15.504Z,17.25
2018-10-17T03:42:44.716Z,18.80
2018-10-17T03:45:14.055Z,20.65
2018-10-17T03:47:43.899Z,19.20
2018-10-17T03:50:13.359Z,17.95
2018-10-17T03:52:42.558Z,17.25
2018-10-17T03:55:11.920Z,15.63
2018-10-17T03:57:41.212Z,15.98
2018-10-17T04:00:10.499Z,18.02
2018-10-17T04:02:39.749Z,18.65
2018-10-17T04:05:12.934Z,18.10
2018-10-17T04:07:42.361Z,15.23
2018-10-17T04:10:11.562Z,15.48
2018-10-17T04:12:40.935Z,13.58
2018-10-17T04:15:10.228Z,14.55
2018-10-17T04:17:41.146Z,15.40
2018-10-17T04:20:10.378Z,14.33
2018-10-17T04:22:44.120Z,15.23
2018-10-17T04:25:13.292Z,16.60
2018-10-17T04:27:42.668Z,13.60
2018-10-17T04:30:11.877Z,16.32
2018-10-17T04:32:41.085Z,15.50
2018-10-17T04:35:10.385Z,14.80
2018-10-17T04:37:39.851Z,17.62
2018-10-17T04:40:09.020Z,15.83
2018-10-17T04:42:38.266Z,15.35
2018-10-17T04:45:08.448Z,15.75
2018-10-17T04:47:37.847Z,13.08
2018-10-17T04:50:08.372Z,15.38
2018-10-17T04:52:37.604Z,13.40
2018-10-17T04:55:07.591Z,13.72
2018-10-17T04:57:37.478Z,14.90
2018-10-17T05:00:08.722Z,16.10
2018-10-17T05:02:37.967Z,15.50
2018-10-17T05:05:07.374Z,15.90
2018-10-17T05:07:36.678Z,14.28
2018-10-17T05:10:05.929Z,15.32
2018-10-17T05:12:35.485Z,14.98
2018-10-17T05:15:04.908Z,14.05
2018-10-17T05:17:35.892Z,13.83
2018-10-17T05:20:05.908Z,14.95
2018-10-17T05:22:35.231Z,14.13
2018-10-17T05:25:04.863Z,15.45
2018-10-17T05:27:35.818Z,16.12
2018-10-17T05:30:06.376Z,16.57
2018-10-17T05:32:35.630Z,16.05
2018-10-17T05:35:05.505Z,15.60
2018-10-17T05:37:36.936Z,14.90
2018-10-17T05:40:06.293Z,14.35
2018-10-17T05:42:36.676Z,16.17
2018-10-17T05:45:08.176Z,14.83
2018-10-17T05:47:38.529Z,14.28
2018-10-17T05:50:07.795Z,14.25
2018-10-17T05:52:37.095Z,15.25
2018-10-17T05:55:06.786Z,13.88
2018-10-17T05:57:36.794Z,14.98
2018-10-17T06:00:08.082Z,14.63
2018-10-17T06:02:38.181Z,14.70
2018-10-17T06:05:08.269Z,13.93
2018-10-17T06:07:37.737Z,13.65
2018-10-17T06:10:08.288Z,13.15
2018-10-17T06:12:37.542Z,14.73
2018-10-17T06:15:07.744Z,14.98
2018-10-17T06:17:39.201Z,15.03
2018-10-17T06:20:08.483Z,15.60
2018-10-17T06:22:38.584Z,15.45
2018-10-17T06:25:08.555Z,16.07
2018-10-17T06:27:37.812Z,14.63
2018-10-17T06:30:08.331Z,16.40
2018-10-17T06:32:38.016Z,15.32
2018-10-17T06:35:07.556Z,15.70
2018-10-17T06:37:39.037Z,16.32
2018-10-17T06:40:09.876Z,15.60
2018-10-17T06:42:39.124Z,16.90
2018-10-17T06:45:09.879Z,19.23
2018-10-17T06:47:41.241Z,16.30
2018-10-17T06:50:11.800Z,14.53
2018-10-17T06:52:41.049Z,20.68
2018-10-17T06:55:12.861Z,16.90
2018-10-17T06:57:42.064Z,16.60
2018-10-17T07:00:11.806Z,16.05
2018-10-17T07:02:40.996Z,16.05
2018-10-17T07:05:11.967Z,16.40
2018-10-17T07:07:42.183Z,16.75
2018-10-17T07:10:11.664Z,16.80
2018-10-17T07:12:40.875Z,15.93
2018-10-17T07:15:11.623Z,15.70
2018-10-17T07:17:40.984Z,18.20
2018-10-17T07:20:10.314Z,16.60
2018-10-17T07:22:40.146Z,16.52
2018-10-17T07:25:09.380Z,16.30
2018-10-17T07:27:42.147Z,15.88
2018-10-17T07:30:14.115Z,15.70
2018-10-17T07:32:43.342Z,16.55
2018-10-17T07:35:12.580Z,15.78
2018-10-17T07:37:41.890Z,17.12
2018-10-17T07:40:11.112Z,16.77
2018-10-17T07:42:41.206Z,16.50
2018-10-17T07:45:10.652Z,15.85
2018-10-17T07:47:40.799Z,17.42
2018-10-17T07:50:12.446Z,16.55
2018-10-17T07:52:41.929Z,17.62
2018-10-17T07:55:12.182Z,17.15
2018-10-17T07:57:43.123Z,16.32
2018-10-17T08:00:15.166Z,17.48
2018-10-17T08:02:44.309Z,17.23
2018-10-17T08:05:14.633Z,17.55
2018-10-17T08:07:44.088Z,17.17
2018-10-17T08:10:13.347Z,18.12
2018-10-17T08:12:42.765Z,14.55
2018-10-17T08:15:11.941Z,17.75
2018-10-17T08:17:42.451Z,17.02
2018-10-17T08:20:13.593Z,18.20
2018-10-17T08:22:43.113Z,17.42
2018-10-17T08:25:12.968Z,16.97
2018-10-17T08:27:43.652Z,16.12
2018-10-17T08:30:13.102Z,15.63
2018-10-17T08:32:43.010Z,14.40
2018-10-17T08:35:12.528Z,14.13
2018-10-17T08:37:44.508Z,15.58
2018-10-17T08:40:13.225Z,13.05
2018-10-17T08:42:43.336Z,15.18
2018-10-17T08:45:12.904Z,12.75
2018-10-17T08:47:42.929Z,14.85
2018-10-17T08:50:12.455Z,14.15
2018-10-17T08:52:42.431Z,14.18
2018-10-17T08:55:11.676Z,14.33
2018-10-17T08:57:43.865Z,14.98
2018-10-17T09:00:13.828Z,14.73
2018-10-17T09:02:44.328Z,15.03
2018-10-17T09:05:13.629Z,13.93
2018-10-17T09:07:45.106Z,13.93
2018-10-17T09:10:14.702Z,12.80
2018-10-17T09:12:52.625Z,13.50
2018-10-17T09:15:22.568Z,13.28
2018-10-17T09:17:53.056Z,13.25
2018-10-17T09:20:22.833Z,12.98
2018-10-17T09:22:51.708Z,12.45
2018-10-17T09:25:21.507Z,11.20
2018-10-17T09:27:51.755Z,10.72
2018-10-17T09:30:21.696Z,10.82
2018-10-17T09:32:55.423Z,11.35
2018-10-17T09:35:24.904Z,10.30
2018-10-17T09:37:54.266Z,10.68
2018-10-17T09:40:23.527Z,10.78
2018-10-17T09:42:53.435Z,10.70
2018-10-17T09:45:22.648Z,10.35
2018-10-17T09:47:53.799Z,10.70
2018-10-17T09:51:29.198Z,9.33
2018-10-17T09:53:58.421Z,10.08
2018-10-17T09:56:27.639Z,10.23
2018-10-17T09:58:57.108Z,9.98
2018-10-17T10:01:31.623Z,9.20
2018-10-17T10:04:01.312Z,9.98
2018-10-17T10:06:30.751Z,9.38
2018-10-17T10:09:00.041Z,9.70
2018-10-17T10:11:29.241Z,9.03
2018-10-17T10:13:58.430Z,8.93
2018-10-17T10:16:27.867Z,10.15
2018-10-17T10:18:58.947Z,9.43
2018-10-17T10:21:29.032Z,10.15
2018-10-17T10:23:58.644Z,10.93
2018-10-17T10:26:28.021Z,10.03
2018-10-17T10:29:04.797Z,9.88
2018-10-17T10:31:34.100Z,10.65
2018-10-17T10:34:03.883Z,9.88
2018-10-17T10:36:33.248Z,10.30
2018-10-17T10:39:02.855Z,9.08
2018-10-17T10:41:32.028Z,9.85
2018-10-17T10:44:01.266Z,8.68
2018-10-17T10:46:30.470Z,9.13
2018-10-17T10:48:59.982Z,9.80
2018-10-17T10:51:29.174Z,9.35
2018-10-17T10:53:58.614Z,9.65
2018-10-17T10:56:28.744Z,9.55
2018-10-17T10:58:59.064Z,10.10
2018-10-17T11:01:28.337Z,8.35
2018-10-17T11:03:57.641Z,8.23
2018-10-17T11:06:26.865Z,9.65
2018-10-17T11:08:57.138Z,8.43
2018-10-17T11:11:26.480Z,9.70
2018-10-17T11:13:58.082Z,9.03
2018-10-17T11:16:27.670Z,9.08
2018-10-17T11:18:57.031Z,8.25
2018-10-17T11:21:26.531Z,7.87
2018-10-17T11:23:56.854Z,8.25
2018-10-17T11:26:26.090Z,9.18
2018-10-17T11:28:55.450Z,8.40
2018-10-17T11:31:25.895Z,7.50
2018-10-17T11:33:55.046Z,7.45
2018-10-17T11:36:24.243Z,6.97
2018-10-17T11:38:53.684Z,7.20
2018-10-17T11:41:23.015Z,8.03
2018-10-17T11:43:52.145Z,7.27
2018-10-17T11:46:21.338Z,7.80
2018-10-17T11:48:51.497Z,15.17
2018-10-17T11:51:21.876Z,11.00
2018-10-17T11:53:52.070Z,7.50
2018-10-17T11:56:21.281Z,8.43
2018-10-17T11:58:52.640Z,8.50
2018-10-17T12:01:24.577Z,7.60
2018-10-17T12:03:55.077Z,7.90
2018-10-17T12:06:24.330Z,7.47
2018-10-17T12:08:53.873Z,7.30
2018-10-17T12:11:23.532Z,7.47
2018-10-17T12:13:55.254Z,7.53
2018-10-17T12:16:24.436Z,8.17
2018-10-17T12:18:54.590Z,7.00
2018-10-17T12:21:24.828Z,7.40
2018-10-17T12:23:55.564Z,7.10
2018-10-17T12:26:24.870Z,6.80
2018-10-17T12:28:55.153Z,7.60
2018-10-17T12:31:24.588Z,6.40
2018-10-17T12:33:54.561Z,6.90
2018-10-17T12:36:23.862Z,6.50
2018-10-17T12:38:55.127Z,6.50
2018-10-17T12:41:24.413Z,6.40
2018-10-17T12:43:54.419Z,6.20
2018-10-17T12:46:23.601Z,6.10
2018-10-17T12:48:53.052Z,6.30
2018-10-17T12:51:23.356Z,7.27
2018-10-17T12:53:52.548Z,5.60
2018-10-17T12:56:21.917Z,6.13
2018-10-17T12:58:51.178Z,6.23
2018-10-17T13:01:20.800Z,6.30
2018-10-17T13:03:50.080Z,6.77
2018-10-17T13:06:19.500Z,6.50
2018-10-17T13:08:48.798Z,6.27
2018-10-17T13:11:18.678Z,6.23
2018-10-17T13:13:49.125Z,6.40
2018-10-17T13:16:18.352Z,6.20
2018-10-17T13:18:47.789Z,6.50
2018-10-17T13:21:17.051Z,5.97
2018-10-17T13:23:46.239Z,6.00
2018-10-17T13:26:15.455Z,5.77
2018-10-17T13:28:44.826Z,4.63
2018-10-17T13:31:14.166Z,5.43
2018-10-17T13:33:43.614Z,5.77
2018-10-17T13:36:12.834Z,5.17
2018-10-17T13:38:42.183Z,4.73
2018-10-17T13:41:11.538Z,4.90
2018-10-17T13:43:40.386Z,5.80
2018-10-17T13:46:09.526Z,5.90
2018-10-17T13:48:41.040Z,5.80
2018-10-17T13:51:10.354Z,6.13
2018-10-17T13:53:39.943Z,5.53
2018-10-17T13:56:09.977Z,6.27
2018-10-17T13:58:39.411Z,6.20
2018-10-17T14:01:08.874Z,6.90
2018-10-17T14:03:41.478Z,7.17
2018-10-17T14:06:14.569Z,5.53
2018-10-17T14:08:51.409Z,6.00
2018-10-17T14:11:26.966Z,6.03
2018-10-17T14:13:58.103Z,6.93
2018-10-17T14:16:27.301Z,5.90
2018-10-17T14:18:59.289Z,5.90
2018-10-17T14:21:28.561Z,6.00
2018-10-17T14:23:58.253Z,5.80
2018-10-17T14:26:27.398Z,5.83
2018-10-17T14:28:59.141Z,7.03
2018-10-17T14:31:28.423Z,5.27
2018-10-17T14:33:58.309Z,6.00
2018-10-17T14:36:27.631Z,5.93
2018-10-17T14:38:57.620Z,4.77
2018-10-17T14:41:26.752Z,5.83
2018-10-17T14:43:55.922Z,6.53
2018-10-17T14:46:25.119Z,5.30
2018-10-17T14:48:54.725Z,5.27
2018-10-17T14:51:23.957Z,5.50
2018-10-17T14:53:53.898Z,5.50
2018-10-17T14:56:23.118Z,39.70
2018-10-17T14:58:52.439Z,10.40
2018-10-17T15:01:21.574Z,6.30
2018-10-17T15:03:50.859Z,5.57
2018-10-17T15:06:20.076Z,5.00
2018-10-17T15:08:49.600Z,5.60
2018-10-17T15:11:20.068Z,5.23
2018-10-17T15:13:49.541Z,6.37
2018-10-17T15:16:18.779Z,5.63
2018-10-17T15:18:48.010Z,6.23
2018-10-17T15:21:17.680Z,5.57
2018-10-17T15:23:46.882Z,5.73
2018-10-17T15:26:16.184Z,5.20
2018-10-17T15:28:45.607Z,5.97
2018-10-17T15:31:15.183Z,5.30
2018-10-17T15:33:44.941Z,10.53
2018-10-17T15:36:14.472Z,7.73
2018-10-17T15:38:43.608Z,7.73
2018-10-17T15:41:12.851Z,10.43
2018-10-17T15:43:42.222Z,6.50
2018-10-17T15:46:11.358Z,6.30
2018-10-17T15:48:40.898Z,6.50
2018-10-17T15:51:10.615Z,6.63
2018-10-17T15:53:40.294Z,7.60
2018-10-17T15:56:09.716Z,8.13
2018-10-17T15:58:39.287Z,7.83
2018-10-17T16:01:08.558Z,7.20
2018-10-17T16:03:38.448Z,5.80
2018-10-17T16:06:08.059Z,5.75
2018-10-17T16:08:37.582Z,5.20
2018-10-17T16:11:07.242Z,6.28
2018-10-17T16:13:36.568Z,5.58
2018-10-17T16:16:06.130Z,6.58
2018-10-17T16:18:35.523Z,5.37
2018-10-17T16:21:05.066Z,6.15
2018-10-17T16:23:34.295Z,7.40
2018-10-17T16:26:04.399Z,5.87
2018-10-17T16:28:33.763Z,7.12
2018-10-17T16:31:07.337Z,12.43
2018-10-17T16:33:36.556Z,17.45
2018-10-17T16:36:06.639Z,15.53
2018-10-17T16:38:35.899Z,14.18
2018-10-17T16:41:06.299Z,16.52
2018-10-17T16:43:35.485Z,17.80
2018-10-17T16:46:04.901Z,11.95
2018-10-17T16:48:34.305Z,11.15
2018-10-17T16:51:05.652Z,18.77
2018-10-17T16:53:35.019Z,11.30
2018-10-17T16:56:06.182Z,10.95
2018-10-17T16:58:35.600Z,7.85
2018-10-17T17:01:05.511Z,8.28
2018-10-17T17:03:38.724Z,7.90
2018-10-17T17:06:09.254Z,7.22
2018-10-17T17:08:39.560Z,7.75
2018-10-17T17:11:08.895Z,7.60
2018-10-17T17:13:38.115Z,6.85
2018-10-17T17:16:07.467Z,8.58
2018-10-17T17:18:36.906Z,8.45
2018-10-17T17:21:06.548Z,8.03
2018-10-17T17:23:35.714Z,7.83
2018-10-17T17:26:04.961Z,9.25
2018-10-17T17:28:34.205Z,8.93
2018-10-17T17:31:03.470Z,8.03
2018-10-17T17:33:32.779Z,8.50
2018-10-17T17:36:02.084Z,9.10
2018-10-17T17:38:31.445Z,7.33
2018-10-17T17:41:00.646Z,8.65
2018-10-17T17:43:29.846Z,9.05
2018-10-17T17:45:59.061Z,9.05
2018-10-17T17:48:28.479Z,9.10
2018-10-17T17:50:57.999Z,8.30
2018-10-17T17:53:27.413Z,8.75
2018-10-17T17:55:56.649Z,7.97
2018-10-17T17:58:26.535Z,9.05
2018-10-17T18:00:58.111Z,9.05
2018-10-17T18:03:27.422Z,9.13
2018-10-17T18:05:56.621Z,9.35
2018-10-17T18:08:27.444Z,9.43
2018-10-17T18:10:56.726Z,11.35
2018-10-17T18:13:25.929Z,9.63
2018-10-17T18:15:55.169Z,10.75
2018-10-17T18:18:25.497Z,8.48
2018-10-17T18:20:54.722Z,9.73
2018-10-17T18:23:23.947Z,9.63
2018-10-17T18:25:54.917Z,11.35
2018-10-17T18:28:24.250Z,9.73
2018-10-17T18:30:55.766Z,11.45
2018-10-17T18:33:25.196Z,10.05
2018-10-17T18:35:54.479Z,11.35
2018-10-17T18:38:23.921Z,10.53
2018-10-17T18:40:53.790Z,10.90
2018-10-17T18:43:23.234Z,11.30
2018-10-17T18:45:52.485Z,11.73
2018-10-17T18:48:23.223Z,11.45
2018-10-17T18:50:55.903Z,12.20
2018-10-17T18:53:25.186Z,11.40
2018-10-17T18:55:54.620Z,12.33
2018-10-17T18:58:25.016Z,12.95
2018-10-17T19:00:54.396Z,11.85
2018-10-17T19:03:23.667Z,12.45
2018-10-17T19:05:53.099Z,13.72
2018-10-17T19:08:22.506Z,14.53
2018-10-17T19:10:51.913Z,15.78
2018-10-17T19:13:21.247Z,15.00
2018-10-17T19:15:50.686Z,14.58
2018-10-17T19:18:20.010Z,13.58
2018-10-17T19:20:52.275Z,14.53
2018-10-17T19:23:21.672Z,11.57
2018-10-17T19:25:50.965Z,11.60
2018-10-17T19:28:20.375Z,11.75
2018-10-17T19:30:49.730Z,11.48
2018-10-17T19:33:19.060Z,11.78
2018-10-17T19:35:48.367Z,12.60
2018-10-17T19:38:17.726Z,11.55
2018-10-17T19:40:47.084Z,11.22
2018-10-17T19:43:16.421Z,10.80
2018-10-17T19:45:46.083Z,10.23
2018-10-17T19:48:16.473Z,11.00
2018-10-17T19:50:45.712Z,12.35
2018-10-17T19:53:15.393Z,12.75
2018-10-17T19:55:44.628Z,11.95
2018-10-17T19:58:14.270Z,12.10
2018-10-17T20:00:43.562Z,11.83
2018-10-17T20:03:13.473Z,11.97
2018-10-17T20:05:42.655Z,11.97
2018-10-17T20:08:12.126Z,11.75
2018-10-17T20:10:42.297Z,12.88
2018-10-17T20:13:11.650Z,13.60
2018-10-17T20:15:41.507Z,13.43
2018-10-17T20:18:10.802Z,13.40
2018-10-17T20:20:40.040Z,12.70
2018-10-17T20:23:09.547Z,12.33
2018-10-17T20:25:38.818Z,11.80
2018-10-17T20:28:08.288Z,15.00
2018-10-17T20:30:40.298Z,11.73
2018-10-17T20:33:09.785Z,13.03
2018-10-17T20:35:38.930Z,13.18
2018-10-17T20:38:08.300Z,11.70
2018-10-17T20:40:37.529Z,13.25
2018-10-17T20:43:06.729Z,14.98
2018-10-17T20:45:35.988Z,12.98
2018-10-17T20:48:05.560Z,12.90
2018-10-17T20:50:34.789Z,12.43
2018-10-17T20:53:03.997Z,13.30
2018-10-17T20:55:33.215Z,14.63
2018-10-17T20:58:03.494Z,15.05
2018-10-17T21:00:32.716Z,14.40
2018-10-17T21:03:01.926Z,13.20
2018-10-17T21:05:31.261Z,13.65
2018-10-17T21:08:00.872Z,14.73
2018-10-17T21:10:30.046Z,14.23
2018-10-17T21:12:59.553Z,13.72
2018-10-17T21:15:29.700Z,13.10
2018-10-17T21:17:59.389Z,12.85
2018-10-17T21:20:28.554Z,14.05
2018-10-17T21:22:57.844Z,13.10
2018-10-17T21:25:27.050Z,13.65
2018-10-17T21:27:56.318Z,13.40
2018-10-17T21:30:25.792Z,13.88
2018-10-17T21:32:54.995Z,12.55
2018-10-17T21:35:24.280Z,13.08
2018-10-17T21:37:53.607Z,14.30
2018-10-17T21:40:22.789Z,13.95
2018-10-17T21:42:52.002Z,12.60
2018-10-17T21:45:21.183Z,13.98
2018-10-17T21:47:50.549Z,14.65
2018-10-17T21:50:23.190Z,13.62
2018-10-17T21:52:52.455Z,13.80
2018-10-17T21:55:21.694Z,14.10
2018-10-17T21:57:51.091Z,14.73
2018-10-17T22:00:21.052Z,16.15
2018-10-17T22:02:50.256Z,15.60
2018-10-17T22:05:19.692Z,15.48
2018-10-17T22:07:50.022Z,14.35
2018-10-17T22:10:19.616Z,13.93
2018-10-17T22:12:48.862Z,15.43
2018-10-17T22:15:18.488Z,13.60
2018-10-17T22:17:47.838Z,15.85
2018-10-17T22:20:17.185Z,15.15
2018-10-17T22:22:46.315Z,13.70
2018-10-17T22:25:15.531Z,15.40
2018-10-17T22:27:45.665Z,13.70
2018-10-17T22:30:14.873Z,14.85
2018-10-17T22:32:44.077Z,14.38
2018-10-17T22:35:16.031Z,12.78
2018-10-17T22:37:45.327Z,14.30
2018-10-17T22:40:14.498Z,13.72
2018-10-17T22:42:47.466Z,14.47
2018-10-17T22:45:16.974Z,14.85
2018-10-17T22:47:46.186Z,15.98
2018-10-17T22:50:15.652Z,14.53
2018-10-17T22:52:45.832Z,14.70
2018-10-17T22:55:15.894Z,14.87
2018-10-17T22:57:45.386Z,14.40
2018-10-17T23:00:14.590Z,15.93
2018-10-17T23:02:43.799Z,15.88
2018-10-17T23:05:13.121Z,15.65
2018-10-17T23:07:42.631Z,13.75
2018-10-17T23:10:11.980Z,14.60
2018-10-17T23:12:41.223Z,16.00
2018-10-17T23:15:13.399Z,14.55
2018-10-17T23:17:42.797Z,16.37
2018-10-17T23:20:12.390Z,17.15
2018-10-17T23:22:42.097Z,14.33
2018-10-17T23:25:12.037Z,16.52
2018-10-17T23:27:41.941Z,15.23
2018-10-17T23:30:11.184Z,16.85
2018-10-17T23:32:40.391Z,16.20
2018-10-17T23:35:09.602Z,16.48
2018-10-17T23:37:39.059Z,14.80
2018-10-17T23:40:08.895Z,15.68
2018-10-17T23:42:38.682Z,15.18
2018-10-17T23:45:08.267Z,15.32
2018-10-17T23:47:37.677Z,14.68
2018-10-17T23:50:07.086Z,15.15
2018-10-17T23:52:36.328Z,17.27
2018-10-17T23:55:06.231Z,15.50
2018-10-17T23:57:35.922Z,16.95
